Time;durP1;ratioP1;P1;durP2;ratioP2;P2;SDS_P1;SDS_P2;PMS_P1;PMS_P2;Temp;Humidity;BMP_temperature;BMP_pressure;BME280_temperature;BME280_humidity;BME280_pressure;Samples;Min_cycle;Max_cycle;Signal;HPM_P1;HPM_P2
2022/07/27 00:00:04;;;;;;;0.70;0.70;;;19.70;99.90;;;;;;5066023;28;20216;-63
2022/07/27 00:02:31;;;;;;;0.70;0.70;;;19.70;99.90;;;;;;5067171;28;20686;-62
2022/07/27 00:04:57;;;;;;;0.45;0.45;;;19.70;99.90;;;;;;5064790;28;20287;-63
2022/07/27 00:07:24;;;;;;;0.60;0.60;;;19.70;99.90;;;;;;5068925;28;20330;-62
2022/07/27 00:09:53;;;;;;;0.68;0.68;;;19.80;99.90;;;;;;5064014;28;20290;-63
2022/07/27 00:12:20;;;;;;;0.55;0.55;;;19.90;99.90;;;;;;5067069;28;20195;-63
2022/07/27 00:14:46;;;;;;;0.70;0.70;;;20.00;99.90;;;;;;5064173;28;20282;-62
2022/07/27 00:17:13;;;;;;;0.75;0.75;;;20.00;99.90;;;;;;5066618;28;20243;-62
2022/07/27 00:19:40;;;;;;;0.60;0.60;;;20.20;99.90;;;;;;5069586;28;20239;-63
2022/07/27 00:22:07;;;;;;;0.60;0.60;;;20.20;99.90;;;;;;5068033;28;20315;-63
2022/07/27 00:24:34;;;;;;;0.63;0.63;;;20.10;99.90;;;;;;5073286;28;20683;-63
2022/07/27 00:27:02;;;;;;;0.70;0.70;;;20.00;99.90;;;;;;5066988;28;20255;-63
2022/07/27 00:29:29;;;;;;;0.50;0.50;;;20.10;99.90;;;;;;5070273;28;20212;-62
2022/07/27 00:31:56;;;;;;;0.85;0.70;;;20.10;99.90;;;;;;5065714;28;20294;-62
2022/07/27 00:34:23;;;;;;;0.70;0.70;;;20.00;99.90;;;;;;5068632;28;20282;-63
2022/07/27 00:36:50;;;;;;;0.38;0.38;;;20.10;99.90;;;;;;5066493;28;20241;-61
2022/07/27 00:39:17;;;;;;;0.47;0.47;;;20.10;99.90;;;;;;5067040;28;20203;-63
2022/07/27 00:41:44;;;;;;;0.35;0.35;;;20.20;99.90;;;;;;5066243;28;20314;-63
2022/07/27 00:44:12;;;;;;;0.65;0.65;;;20.10;99.90;;;;;;5062623;28;20319;-64
2022/07/27 00:46:39;;;;;;;0.60;0.60;;;20.10;99.90;;;;;;5061672;28;20250;-62
2022/07/27 00:49:06;;;;;;;0.73;0.60;;;20.10;99.90;;;;;;5069808;28;20724;-62
2022/07/27 00:51:33;;;;;;;0.77;0.77;;;20.10;99.90;;;;;;5063150;28;20195;-61
2022/07/27 00:54:00;;;;;;;0.60;0.60;;;20.10;99.90;;;;;;5064687;28;20295;-62
2022/07/27 00:56:27;;;;;;;0.65;0.65;;;20.10;99.90;;;;;;5066464;28;20318;-63
2022/07/27 00:58:56;;;;;;;0.50;0.50;;;20.10;99.90;;;;;;5065090;28;20295;-63
2022/07/27 01:01:25;;;;;;;0.60;0.60;;;20.10;99.90;;;;;;5065964;28;20219;-61
2022/07/27 01:03:51;;;;;;;0.63;0.63;;;20.10;99.90;;;;;;5065896;28;20219;-61
2022/07/27 01:06:19;;;;;;;0.60;0.60;;;20.10;99.90;;;;;;5056829;28;20198;-62
2022/07/27 01:08:47;;;;;;;1.00;0.60;;;20.10;99.90;;;;;;5066791;28;20209;-63
2022/07/27 01:11:15;;;;;;;0.70;0.70;;;20.00;99.90;;;;;;5061767;28;20286;-63
2022/07/27 01:13:42;;;;;;;0.60;0.60;;;20.00;99.90;;;;;;5066714;28;20223;-62
2022/07/27 01:16:09;;;;;;;0.70;0.70;;;20.10;99.90;;;;;;5063215;28;20203;-63
2022/07/27 01:18:39;;;;;;;0.60;0.60;;;20.00;99.90;;;;;;5067298;28;20724;-62
2022/07/27 01:21:08;;;;;;;0.70;0.70;;;20.00;99.90;;;;;;5062197;28;20643;-62
2022/07/27 01:23:37;;;;;;;0.60;0.60;;;19.90;99.90;;;;;;5067295;28;20495;-64
2022/07/27 01:26:06;;;;;;;0.60;0.60;;;20.00;99.90;;;;;;5063863;28;20211;-63
2022/07/27 01:28:33;;;;;;;0.60;0.60;;;20.00;99.90;;;;;;5067390;28;20195;-63
2022/07/27 01:31:01;;;;;;;0.70;0.70;;;20.00;99.90;;;;;;5064033;28;20286;-61
2022/07/27 01:33:27;;;;;;;0.85;0.73;;;19.90;99.90;;;;;;5061818;28;20227;-61
2022/07/27 01:35:56;;;;;;;0.77;0.77;;;19.90;99.90;;;;;;5067791;28;20257;-62
2022/07/27 01:38:23;;;;;;;0.50;0.50;;;19.90;99.90;;;;;;5061942;28;20300;-63
2022/07/27 01:40:53;;;;;;;0.70;0.70;;;19.80;99.90;;;;;;5068558;28;20219;-61
2022/07/27 01:43:20;;;;;;;0.60;0.60;;;19.80;99.90;;;;;;5058693;28;20287;-63
2022/07/27 01:45:47;;;;;;;0.60;0.60;;;19.80;99.90;;;;;;5069041;28;20704;-61
2022/07/27 01:48:14;;;;;;;0.67;0.67;;;19.60;99.90;;;;;;5061958;28;20781;-62
2022/07/27 01:50:41;;;;;;;0.80;0.80;;;19.60;99.90;;;;;;5061973;28;20299;-61
2022/07/27 01:53:08;;;;;;;0.75;0.75;;;19.50;99.90;;;;;;5068420;28;20741;-62
2022/07/27 01:55:34;;;;;;;0.70;0.70;;;19.50;99.90;;;;;;5061515;28;20292;-62
2022/07/27 01:58:06;;;;;;;0.90;0.90;;;19.40;99.90;;;;;;5069452;28;20282;-62
2022/07/27 02:00:33;;;;;;;0.70;0.70;;;19.30;99.90;;;;;;5064285;28;20204;-63
2022/07/27 02:03:00;;;;;;;0.70;0.70;;;19.20;99.90;;;;;;5062630;28;20666;-63
2022/07/27 02:05:27;;;;;;;0.75;0.70;;;19.10;99.90;;;;;;5064084;28;20199;-61
2022/07/27 02:07:53;;;;;;;0.57;0.57;;;19.10;99.90;;;;;;5061380;28;20241;-61
2022/07/27 02:10:20;;;;;;;0.70;0.70;;;19.10;99.90;;;;;;5068069;28;20204;-62
2022/07/27 02:12:46;;;;;;;1.52;0.68;;;19.10;99.90;;;;;;5061128;28;20232;-61
2022/07/27 02:15:16;;;;;;;0.60;0.60;;;19.00;99.90;;;;;;5069069;28;20250;-62
2022/07/27 02:17:44;;;;;;;0.68;0.68;;;19.00;99.90;;;;;;5060986;28;20227;-64
2022/07/27 02:20:11;;;;;;;0.67;0.67;;;19.00;99.90;;;;;;5064000;28;20329;-63
2022/07/27 02:22:38;;;;;;;0.80;0.80;;;19.00;99.90;;;;;;5061084;28;20228;-62
2022/07/27 02:25:06;;;;;;;0.70;0.70;;;18.90;99.90;;;;;;5065525;28;20653;-63
2022/07/27 02:27:33;;;;;;;0.80;0.80;;;18.80;99.90;;;;;;5077170;28;20305;-62
2022/07/27 02:30:00;;;;;;;0.70;0.70;;;18.70;99.90;;;;;;5075866;28;20230;-63
2022/07/27 02:32:28;;;;;;;0.70;0.70;;;18.60;99.90;;;;;;5081989;28;20256;-63
2022/07/27 02:34:55;;;;;;;0.70;0.70;;;18.50;99.90;;;;;;5077438;28;20235;-63
2022/07/27 02:37:22;;;;;;;0.70;0.70;;;18.40;99.90;;;;;;5069615;28;20764;-63
2022/07/27 02:39:49;;;;;;;0.70;0.70;;;18.40;99.90;;;;;;5067074;28;20204;-62
2022/07/27 02:42:16;;;;;;;0.40;0.40;;;18.30;99.90;;;;;;5050047;28;20222;-62
2022/07/27 02:44:43;;;;;;;0.57;0.57;;;18.30;99.90;;;;;;5066919;28;20232;-62
2022/07/27 02:47:10;;;;;;;0.70;0.70;;;18.20;99.90;;;;;;5065680;28;20303;-62
2022/07/27 02:49:38;;;;;;;0.77;0.77;;;18.20;99.90;;;;;;5068013;28;20311;-62
2022/07/27 02:52:06;;;;;;;0.53;0.53;;;18.10;99.90;;;;;;5064550;28;20266;-63
2022/07/27 02:54:34;;;;;;;0.75;0.75;;;18.10;99.90;;;;;;5065911;28;20494;-63
2022/07/27 02:57:03;;;;;;;1.00;0.70;;;18.00;99.90;;;;;;5057777;28;20220;-63
2022/07/27 02:59:30;;;;;;;1.35;0.90;;;18.00;99.90;;;;;;5066233;28;20341;-63
2022/07/27 03:01:57;;;;;;;0.70;0.70;;;18.00;99.90;;;;;;5056189;28;20224;-64
2022/07/27 03:04:25;;;;;;;0.80;0.80;;;17.90;99.90;;;;;;5064870;28;20230;-62
2022/07/27 03:06:53;;;;;;;0.70;0.70;;;17.80;99.90;;;;;;5064748;28;20317;-63
2022/07/27 03:09:20;;;;;;;0.52;0.52;;;17.80;99.90;;;;;;5063745;28;20203;-62
2022/07/27 03:11:47;;;;;;;1.00;1.00;;;17.70;99.90;;;;;;5064616;28;20632;-63
2022/07/27 03:14:14;;;;;;;1.07;0.50;;;17.70;99.90;;;;;;5063517;28;20214;-63
2022/07/27 03:16:41;;;;;;;0.70;0.70;;;17.60;99.90;;;;;;5064275;28;20314;-62
2022/07/27 03:19:08;;;;;;;1.13;0.77;;;17.60;99.90;;;;;;5059823;28;20231;-62
2022/07/27 03:21:34;;;;;;;0.60;0.60;;;17.60;99.90;;;;;;5059101;28;20258;-64
2022/07/27 03:24:03;;;;;;;0.70;0.70;;;17.50;99.90;;;;;;5062854;28;20609;-64
2022/07/27 03:26:32;;;;;;;0.73;0.73;;;17.50;99.90;;;;;;5058131;28;20223;-62
2022/07/27 03:28:59;;;;;;;0.80;0.80;;;17.50;99.90;;;;;;5064366;28;20203;-61
2022/07/27 03:31:26;;;;;;;1.30;0.80;;;17.50;99.90;;;;;;5076583;28;20203;-62
2022/07/27 03:33:52;;;;;;;0.80;0.80;;;17.40;99.90;;;;;;5080061;28;20203;-60
2022/07/27 03:36:20;;;;;;;0.70;0.70;;;17.40;99.90;;;;;;5077232;28;20228;-62
2022/07/27 03:38:47;;;;;;;0.77;0.77;;;17.40;99.90;;;;;;5076550;28;20203;-62
2022/07/27 03:41:15;;;;;;;0.80;0.80;;;17.40;99.90;;;;;;5060633;28;20233;-63
2022/07/27 03:43:42;;;;;;;0.68;0.68;;;17.40;99.90;;;;;;5066229;28;20294;-64
2022/07/27 03:46:11;;;;;;;0.60;0.60;;;17.40;99.90;;;;;;5063174;28;20752;-63
2022/07/27 03:48:38;;;;;;;1.37;0.80;;;17.30;99.90;;;;;;5067933;28;20210;-64
2022/07/27 03:51:05;;;;;;;0.82;0.82;;;17.40;99.90;;;;;;5057268;28;20200;-64
2022/07/27 03:53:32;;;;;;;0.90;0.90;;;17.40;99.90;;;;;;5058639;28;20234;-64
2022/07/27 03:55:59;;;;;;;0.87;0.87;;;17.40;99.90;;;;;;5065382;28;20232;-63
2022/07/27 03:58:27;;;;;;;0.70;0.70;;;17.40;99.90;;;;;;5058850;28;20225;-62
2022/07/27 04:00:54;;;;;;;0.80;0.80;;;17.50;99.90;;;;;;5059009;28;20299;-61
2022/07/27 04:03:21;;;;;;;0.80;0.80;;;17.50;99.90;;;;;;5065927;28;20203;-65
2022/07/27 04:05:47;;;;;;;0.73;0.73;;;17.50;99.90;;;;;;5063020;28;20210;-62
2022/07/27 04:08:16;;;;;;;0.82;0.82;;;17.50;99.90;;;;;;5064426;28;20314;-62
2022/07/27 04:10:44;;;;;;;0.60;0.60;;;17.50;99.90;;;;;;5064958;28;20257;-62
2022/07/27 04:13:11;;;;;;;0.73;0.73;;;17.50;99.90;;;;;;5059497;28;20207;-62
2022/07/27 04:15:40;;;;;;;0.77;0.77;;;17.50;99.90;;;;;;5068780;28;20200;-64
2022/07/27 04:18:06;;;;;;;0.70;0.70;;;17.50;99.90;;;;;;5066569;28;20258;-63
2022/07/27 04:20:33;;;;;;;0.70;0.70;;;17.60;99.90;;;;;;5070228;28;20246;-64
2022/07/27 04:23:00;;;;;;;0.90;0.90;;;17.60;99.90;;;;;;5072312;28;20231;-64
2022/07/27 04:25:27;;;;;;;0.70;0.70;;;17.60;99.90;;;;;;5072339;28;20262;-63
2022/07/27 04:27:54;;;;;;;0.87;0.87;;;17.70;99.90;;;;;;5065842;28;20275;-64
2022/07/27 04:30:21;;;;;;;0.87;0.87;;;17.70;99.90;;;;;;5066137;28;20199;-64
2022/07/27 04:32:49;;;;;;;0.80;0.80;;;17.70;99.90;;;;;;5070752;28;20282;-63
2022/07/27 04:35:16;;;;;;;0.90;0.90;;;17.80;99.90;;;;;;5070690;28;20238;-63
2022/07/27 04:37:43;;;;;;;2.40;1.10;;;17.80;99.90;;;;;;5069647;28;20254;-63
2022/07/27 04:40:11;;;;;;;0.77;0.77;;;17.80;99.90;;;;;;5067087;28;20318;-63
2022/07/27 04:42:38;;;;;;;0.70;0.70;;;17.90;99.90;;;;;;5052105;28;20300;-62
2022/07/27 04:45:06;;;;;;;0.70;0.70;;;18.00;99.90;;;;;;5060094;28;20287;-63
2022/07/27 04:47:33;;;;;;;0.60;0.60;;;18.10;99.90;;;;;;5050156;28;20243;-64
2022/07/27 04:50:01;;;;;;;0.93;0.80;;;18.20;99.90;;;;;;5059812;28;20290;-64
2022/07/27 04:52:28;;;;;;;0.97;0.97;;;18.20;99.90;;;;;;5066179;28;20358;-63
2022/07/27 04:54:55;;;;;;;0.80;0.80;;;18.30;99.90;;;;;;5076866;28;20226;-63
2022/07/27 04:57:23;;;;;;;1.30;0.80;;;18.40;99.90;;;;;;5054878;28;20282;-62
2022/07/27 04:59:50;;;;;;;0.90;0.90;;;18.60;99.90;;;;;;5060117;28;20562;-63
2022/07/27 05:02:17;;;;;;;0.80;0.80;;;18.80;99.90;;;;;;5054656;28;20314;-62
2022/07/27 05:04:44;;;;;;;0.70;0.70;;;18.90;99.90;;;;;;5060579;28;20222;-63
2022/07/27 05:07:12;;;;;;;0.65;0.65;;;19.10;99.90;;;;;;5065727;28;20311;-63
2022/07/27 05:09:39;;;;;;;0.80;0.80;;;19.20;99.90;;;;;;5054423;28;20200;-65
2022/07/27 05:12:06;;;;;;;0.63;0.63;;;19.20;99.90;;;;;;5052182;28;20196;-65
2022/07/27 05:14:33;;;;;;;0.88;0.88;;;19.20;99.90;;;;;;5047708;28;20208;-64
2022/07/27 05:17:00;;;;;;;0.70;0.70;;;19.00;99.90;;;;;;5045025;28;20311;-65
2022/07/27 05:19:27;;;;;;;1.77;0.88;;;18.90;99.90;;;;;;5057592;28;20208;-66
2022/07/27 05:21:54;;;;;;;0.70;0.70;;;18.90;99.90;;;;;;5056337;28;20251;-66
2022/07/27 05:24:22;;;;;;;0.77;0.77;;;18.90;99.90;;;;;;5057080;28;20227;-65
2022/07/27 05:26:49;;;;;;;0.90;0.90;;;18.90;99.90;;;;;;5055965;28;20258;-66
2022/07/27 05:29:16;;;;;;;1.10;1.00;;;19.10;99.90;;;;;;5061252;28;20240;-65
2022/07/27 05:31:43;;;;;;;0.70;0.70;;;19.20;99.90;;;;;;5063171;28;20199;-65
2022/07/27 05:34:10;;;;;;;1.03;0.70;;;19.30;99.90;;;;;;5054220;28;20666;-63
2022/07/27 05:36:36;;;;;;;0.85;0.85;;;19.50;99.90;;;;;;5055435;28;20220;-64
2022/07/27 05:39:04;;;;;;;0.90;0.90;;;19.50;99.90;;;;;;5053706;28;20196;-65
2022/07/27 05:41:32;;;;;;;0.68;0.68;;;19.60;99.90;;;;;;5055333;28;20207;-65
2022/07/27 05:43:59;;;;;;;0.80;0.80;;;19.70;99.90;;;;;;5053314;28;20206;-64
2022/07/27 05:46:25;;;;;;;1.60;1.00;;;19.90;99.90;;;;;;5063459;28;20554;-64
2022/07/27 05:48:53;;;;;;;0.70;0.70;;;19.90;99.90;;;;;;5059726;28;20644;-64
2022/07/27 05:51:20;;;;;;;0.88;0.88;;;20.00;99.90;;;;;;5059387;28;20227;-65
2022/07/27 05:53:47;;;;;;;0.90;0.90;;;20.10;99.90;;;;;;5059508;28;20227;-64
2022/07/27 05:56:14;;;;;;;1.00;0.90;;;20.20;99.90;;;;;;5057809;28;20229;-64
2022/07/27 05:58:42;;;;;;;0.90;0.90;;;20.20;99.90;;;;;;5055018;28;20284;-65
2022/07/27 06:01:09;;;;;;;0.65;0.65;;;20.30;99.90;;;;;;5053494;28;20292;-65
2022/07/27 06:03:37;;;;;;;0.60;0.60;;;20.30;99.90;;;;;;5054978;28;20220;-65
2022/07/27 06:08:49;;;;;;;1.23;0.93;;;20.50;99.90;;;;;;5054125;28;20242;-65
2022/07/27 06:11:16;;;;;;;0.77;0.77;;;20.70;99.90;;;;;;5059397;28;20282;-65
2022/07/27 06:13:44;;;;;;;0.70;0.70;;;20.80;99.90;;;;;;5056525;28;20647;-65
2022/07/27 06:16:11;;;;;;;0.80;0.80;;;20.90;99.90;;;;;;5057471;28;20204;-64
2022/07/27 06:18:38;;;;;;;1.10;1.00;;;20.90;99.90;;;;;;5053664;28;20296;-65
2022/07/27 06:21:05;;;;;;;1.00;1.00;;;21.00;99.90;;;;;;5049099;28;20906;-65
2022/07/27 06:23:32;;;;;;;0.70;0.70;;;20.90;99.90;;;;;;5056262;28;20655;-64
2022/07/27 06:25:59;;;;;;;0.90;0.90;;;20.90;99.90;;;;;;5054205;28;20300;-64
2022/07/27 06:28:26;;;;;;;1.27;0.70;;;20.90;99.90;;;;;;5053803;28;20311;-64
2022/07/27 06:30:54;;;;;;;1.58;0.80;;;20.90;99.90;;;;;;5056031;28;20208;-64
2022/07/27 06:33:26;;;;;;;1.08;0.95;;;20.90;99.90;;;;;;5060099;28;20290;-65
2022/07/27 06:35:53;;;;;;;0.70;0.70;;;20.90;99.90;;;;;;5051149;28;20693;-65
2022/07/27 06:38:20;;;;;;;0.70;0.70;;;20.90;99.90;;;;;;5054375;28;20234;-65
2022/07/27 06:40:51;;;;;;;0.60;0.60;;;21.00;99.90;;;;;;5075900;28;20204;-64
2022/07/27 06:43:19;;;;;;;0.80;0.80;;;21.00;99.90;;;;;;5078377;28;20223;-65
2022/07/27 06:45:46;;;;;;;0.70;0.70;;;21.10;99.90;;;;;;5058116;28;20685;-65
2022/07/27 06:48:15;;;;;;;0.82;0.82;;;21.20;99.90;;;;;;5063587;28;20273;-65
2022/07/27 06:50:42;;;;;;;1.77;0.90;;;21.20;99.90;;;;;;5058794;28;20243;-64
2022/07/27 06:53:09;;;;;;;0.80;0.80;;;21.20;99.90;;;;;;5072468;28;20234;-65
2022/07/27 06:55:35;;;;;;;0.73;0.73;;;21.30;99.90;;;;;;5063940;28;20200;-65
2022/07/27 06:58:02;;;;;;;0.75;0.75;;;21.30;99.90;;;;;;5059962;28;20635;-66
2022/07/27 07:00:30;;;;;;;1.88;0.90;;;21.30;99.90;;;;;;5056501;28;20617;-64
2022/07/27 07:02:58;;;;;;;1.00;1.00;;;21.30;99.90;;;;;;5055300;28;20215;-66
2022/07/27 07:05:27;;;;;;;1.67;1.25;;;21.10;99.90;;;;;;5064901;28;20263;-64
2022/07/27 07:07:54;;;;;;;0.80;0.80;;;21.00;99.90;;;;;;5062051;28;20267;-65
2022/07/27 07:10:21;;;;;;;0.90;0.90;;;21.00;99.90;;;;;;5058615;28;20195;-65
2022/07/27 07:12:50;;;;;;;0.90;0.90;;;21.10;99.90;;;;;;5053397;28;20208;-66
2022/07/27 07:15:17;;;;;;;0.90;0.90;;;21.10;99.90;;;;;;5058487;28;20734;-64
2022/07/27 07:17:44;;;;;;;1.00;1.00;;;21.20;99.90;;;;;;5061504;28;20267;-63
2022/07/27 07:20:12;;;;;;;1.20;1.10;;;21.30;99.90;;;;;;5057152;28;20330;-64
2022/07/27 07:22:40;;;;;;;0.90;0.90;;;21.30;99.90;;;;;;5062787;28;20220;-64
2022/07/27 07:25:08;;;;;;;1.10;1.00;;;21.30;99.90;;;;;;5048197;28;20201;-64
2022/07/27 07:27:35;;;;;;;1.20;1.10;;;21.40;99.90;;;;;;5064403;28;20303;-65
2022/07/27 07:30:01;;;;;;;1.20;1.10;;;21.40;99.90;;;;;;5063033;28;20205;-65
2022/07/27 07:32:29;;;;;;;1.48;0.90;;;21.60;99.90;;;;;;5061203;28;20196;-65
2022/07/27 07:34:56;;;;;;;1.00;1.00;;;21.60;99.90;;;;;;5053472;28;20207;-65
2022/07/27 07:37:23;;;;;;;0.90;0.90;;;21.40;99.90;;;;;;5056301;28;20226;-66
2022/07/27 07:39:51;;;;;;;0.98;0.98;;;21.60;99.90;;;;;;5063233;28;20201;-64
2022/07/27 07:42:18;;;;;;;1.38;1.00;;;21.90;99.90;;;;;;5048467;28;20328;-65
2022/07/27 07:44:45;;;;;;;0.82;0.82;;;22.20;99.90;;;;;;5064706;28;20288;-65
2022/07/27 07:47:12;;;;;;;1.13;1.00;;;22.40;99.90;;;;;;5060280;28;20227;-64
2022/07/27 07:49:39;;;;;;;0.80;0.80;;;22.60;99.90;;;;;;5056419;28;20291;-64
2022/07/27 07:52:06;;;;;;;0.80;0.80;;;22.70;99.90;;;;;;5054539;28;20234;-64
2022/07/27 07:54:33;;;;;;;1.00;1.00;;;22.70;99.90;;;;;;5063982;28;20203;-65
2022/07/27 07:57:02;;;;;;;0.98;0.98;;;22.80;99.90;;;;;;5063228;28;20776;-66
2022/07/27 07:59:29;;;;;;;1.00;1.00;;;22.80;99.90;;;;;;5063976;28;20297;-65
2022/07/27 08:01:55;;;;;;;1.20;1.10;;;22.90;99.90;;;;;;5055704;28;20231;-65
2022/07/27 08:04:22;;;;;;;1.15;0.90;;;22.90;99.90;;;;;;5062639;28;20219;-65
2022/07/27 08:06:49;;;;;;;1.00;1.00;;;23.10;99.90;;;;;;5064331;28;20322;-65
2022/07/27 08:09:16;;;;;;;0.80;0.80;;;23.10;99.90;;;;;;5055887;28;20207;-65
2022/07/27 08:11:43;;;;;;;1.50;0.90;;;22.90;99.90;;;;;;5063543;28;20286;-65
2022/07/27 08:14:12;;;;;;;1.10;1.10;;;22.90;99.90;;;;;;5055859;28;20727;-64
2022/07/27 08:16:39;;;;;;;0.93;0.93;;;22.80;99.90;;;;;;5058745;28;20303;-64
2022/07/27 08:19:07;;;;;;;0.93;0.93;;;23.00;99.90;;;;;;5064959;28;20206;-64
2022/07/27 08:21:33;;;;;;;0.98;0.98;;;23.30;99.90;;;;;;5062884;28;20218;-66
2022/07/27 08:24:00;;;;;;;0.90;0.90;;;23.50;99.90;;;;;;5056775;28;20227;-65
2022/07/27 08:26:27;;;;;;;1.00;1.00;;;23.70;99.90;;;;;;5062424;28;20204;-66
2022/07/27 08:28:54;;;;;;;0.88;0.88;;;24.00;99.90;;;;;;5064036;28;20282;-66
2022/07/27 08:31:22;;;;;;;0.88;0.88;;;23.90;99.90;;;;;;5055580;28;20200;-67
2022/07/27 08:33:49;;;;;;;1.33;0.90;;;23.90;99.90;;;;;;5068484;28;20227;-67
2022/07/27 08:36:16;;;;;;;0.82;0.82;;;23.80;99.90;;;;;;5055729;28;20231;-66
2022/07/27 08:38:43;;;;;;;0.90;0.90;;;23.70;99.90;;;;;;5055476;28;20621;-67
2022/07/27 08:41:12;;;;;;;1.10;1.00;;;23.40;99.90;;;;;;5063368;28;20210;-66
2022/07/27 08:43:42;;;;;;;1.05;0.90;;;23.20;99.90;;;;;;5062519;28;20230;-65
2022/07/27 08:46:10;;;;;;;0.83;0.83;;;23.10;99.90;;;;;;5066518;28;20239;-67
2022/07/27 08:48:40;;;;;;;0.70;0.70;;;23.30;99.90;;;;;;5064047;28;20199;-67
2022/07/27 08:51:07;;;;;;;0.90;0.90;;;23.60;99.90;;;;;;5059529;28;20200;-66
2022/07/27 08:53:34;;;;;;;0.70;0.70;;;23.60;99.90;;;;;;5064100;28;20290;-66
2022/07/27 08:56:02;;;;;;;0.88;0.85;;;23.70;99.90;;;;;;5065100;28;20292;-67
2022/07/27 08:58:28;;;;;;;0.70;0.70;;;23.90;99.90;;;;;;5066256;28;20222;-66
2022/07/27 09:00:56;;;;;;;1.00;1.00;;;23.90;99.90;;;;;;5063575;28;20210;-66
2022/07/27 09:03:23;;;;;;;0.90;0.90;;;23.80;99.90;;;;;;5064218;28;20296;-66
2022/07/27 09:05:53;;;;;;;0.73;0.73;;;23.70;99.90;;;;;;5059349;28;20210;-65
2022/07/27 09:08:22;;;;;;;0.80;0.80;;;23.70;99.90;;;;;;5053077;28;20288;-66
2022/07/27 09:10:50;;;;;;;0.98;0.98;;;23.70;99.90;;;;;;5057476;28;20577;-66
2022/07/27 09:13:20;;;;;;;0.75;0.75;;;23.60;99.90;;;;;;5059991;28;20282;-66
2022/07/27 09:15:49;;;;;;;1.00;1.00;;;23.70;99.90;;;;;;5063998;28;20257;-65
2022/07/27 09:18:21;;;;;;;0.80;0.80;;;23.80;99.90;;;;;;5057841;28;20230;-66
2022/07/27 09:21:11;;;;;;;1.15;1.00;;;23.80;99.90;;;;;;5053727;28;20287;-66
2022/07/27 09:23:39;;;;;;;1.20;1.10;;;23.80;99.90;;;;;;5052960;28;20436;-65
2022/07/27 09:26:14;;;;;;;0.90;0.90;;;23.60;99.90;;;;;;5056885;28;20204;-66
2022/07/27 09:28:41;;;;;;;1.00;1.00;;;23.90;99.90;;;;;;5070682;28;20285;-66
2022/07/27 09:31:10;;;;;;;1.27;1.07;;;23.90;99.90;;;;;;5062525;28;20204;-66
2022/07/27 09:33:44;;;;;;;0.90;0.90;;;24.10;99.90;;;;;;5062732;28;20205;-66
2022/07/27 09:36:13;;;;;;;0.90;0.90;;;24.30;99.90;;;;;;5064389;28;20626;-66
2022/07/27 09:38:51;;;;;;;1.15;1.05;;;24.50;99.90;;;;;;5060308;28;20299;-66
2022/07/27 09:41:18;;;;;;;1.00;1.00;;;24.70;99.90;;;;;;5062181;28;20199;-66
2022/07/27 09:43:46;;;;;;;0.93;0.93;;;24.80;99.90;;;;;;5061462;28;20223;-67
2022/07/27 09:46:13;;;;;;;1.20;1.10;;;24.80;99.90;;;;;;5045619;28;20258;-65
2022/07/27 09:48:40;;;;;;;1.00;1.00;;;24.70;99.90;;;;;;5068334;28;20202;-66
2022/07/27 09:51:10;;;;;;;0.98;0.98;;;24.80;99.90;;;;;;5056412;28;20295;-65
2022/07/27 09:53:39;;;;;;;1.10;1.02;;;24.80;99.90;;;;;;5056171;28;20198;-66
2022/07/27 09:56:07;;;;;;;0.93;0.93;;;24.70;99.90;;;;;;5044183;28;20239;-65
2022/07/27 09:58:44;;;;;;;1.00;0.93;;;24.80;99.90;;;;;;5073692;28;20257;-66
2022/07/27 10:01:12;;;;;;;0.80;0.80;;;25.10;99.90;;;;;;5065034;28;20203;-66
2022/07/27 10:03:40;;;;;;;0.85;0.85;;;25.50;99.90;;;;;;5062103;28;20781;-67
2022/07/27 10:06:08;;;;;;;1.10;1.10;;;25.90;99.90;;;;;;5054925;28;20200;-66
2022/07/27 10:08:38;;;;;;;0.90;0.90;;;26.10;99.90;;;;;;5053505;28;20323;-67
2022/07/27 10:11:05;;;;;;;0.90;0.90;;;26.30;99.90;;;;;;5064600;28;20291;-67
2022/07/27 10:13:33;;;;;;;1.13;1.13;;;26.00;99.90;;;;;;5069676;28;20725;-67
2022/07/27 10:16:01;;;;;;;0.80;0.80;;;26.00;99.90;;;;;;5062329;28;20299;-66
2022/07/27 10:18:42;;;;;;;1.00;1.00;;;26.20;99.90;;;;;;5056711;28;20251;-67
2022/07/27 10:21:11;;;;;;;1.02;1.02;;;26.60;99.90;;;;;;5058701;28;20210;-67
2022/07/27 10:23:39;;;;;;;1.00;1.00;;;26.60;99.90;;;;;;5062521;28;20576;-67
2022/07/27 10:26:20;;;;;;;0.80;0.80;;;26.20;99.90;;;;;;5077603;28;20224;-66
2022/07/27 10:28:50;;;;;;;0.90;0.90;;;26.20;99.90;;;;;;5074255;28;20211;-68
2022/07/27 10:31:19;;;;;;;1.10;1.00;;;26.40;99.90;;;;;;5067540;28;20200;-66
2022/07/27 10:33:47;;;;;;;0.88;0.88;;;26.40;99.90;;;;;;5040541;28;20268;-67
2022/07/27 10:36:16;;;;;;;2.00;0.90;;;26.60;99.90;;;;;;5073125;28;20211;-67
2022/07/27 10:38:50;;;;;;;0.90;0.90;;;26.80;99.90;;;;;;5064291;28;20207;-66
2022/07/27 10:41:25;;;;;;;0.75;0.75;;;27.00;99.90;;;;;;5061307;28;20568;-67
2022/07/27 10:44:28;;;;;;;0.93;0.85;;;26.90;99.90;;;;;;5054591;28;20220;-67
2022/07/27 10:46:57;;;;;;;0.90;0.90;;;26.90;99.90;;;;;;5039189;28;20232;-66
2022/07/27 10:49:25;;;;;;;0.82;0.82;;;27.00;99.90;;;;;;5073405;28;20279;-66
2022/07/27 10:51:53;;;;;;;0.85;0.80;;;27.20;99.90;;;;;;5056078;28;20227;-66
2022/07/27 10:54:25;;;;;;;1.00;1.00;;;27.00;99.90;;;;;;5042917;28;20189;-66
2022/07/27 10:56:53;;;;;;;1.02;0.90;;;26.90;99.90;;;;;;5054659;28;20629;-65
2022/07/27 10:59:48;;;;;;;1.25;1.10;;;26.60;99.90;;;;;;5056920;28;20203;-67
2022/07/27 11:02:17;;;;;;;0.80;0.80;;;26.50;99.90;;;;;;5064795;28;20290;-66
2022/07/27 11:04:48;;;;;;;0.85;0.85;;;26.40;99.90;;;;;;5070888;28;20211;-67
2022/07/27 11:07:20;;;;;;;2.92;0.88;;;26.40;99.90;;;;;;5065451;28;20266;-66
2022/07/27 11:09:50;;;;;;;0.75;0.75;;;26.60;99.90;;;;;;5053605;28;20242;-67
2022/07/27 11:12:19;;;;;;;1.25;1.10;;;26.60;99.90;;;;;;5062783;28;20254;-65
2022/07/27 11:14:47;;;;;;;1.17;1.08;;;26.50;99.90;;;;;;5053551;28;20232;-66
2022/07/27 11:17:15;;;;;;;1.85;0.90;;;26.20;99.90;;;;;;5061444;28;20323;-66
2022/07/27 11:19:42;;;;;;;0.80;0.80;;;26.10;99.90;;;;;;5062095;28;20207;-65
2022/07/27 11:22:10;;;;;;;0.93;0.93;;;26.30;99.90;;;;;;5064293;28;20573;-65
2022/07/27 11:24:37;;;;;;;0.90;0.90;;;26.40;99.90;;;;;;5061949;28;20226;-66
2022/07/27 11:27:06;;;;;;;0.80;0.80;;;26.60;99.90;;;;;;5059383;28;20306;-65
2022/07/27 11:29:35;;;;;;;0.68;0.68;;;27.00;99.90;;;;;;5049479;28;20502;-65
2022/07/27 11:32:03;;;;;;;0.70;0.70;;;27.30;99.90;;;;;;5065729;28;20579;-67
2022/07/27 11:34:32;;;;;;;0.70;0.70;;;27.50;99.90;;;;;;5052239;28;20761;-67
2022/07/27 11:37:00;;;;;;;0.88;0.80;;;27.80;99.90;;;;;;5061440;28;20249;-65
2022/07/27 11:39:29;;;;;;;1.05;0.90;;;27.90;99.90;;;;;;5060979;28;20290;-66
2022/07/27 11:41:58;;;;;;;0.90;0.90;;;27.90;99.90;;;;;;5060961;28;20579;-66
2022/07/27 11:44:27;;;;;;;0.75;0.75;;;27.50;99.90;;;;;;5064991;28;20227;-65
2022/07/27 11:46:55;;;;;;;0.95;0.95;;;27.60;99.90;;;;;;5057608;28;20219;-66
2022/07/27 11:49:27;;;;;;;1.88;1.05;;;27.50;99.90;;;;;;5064490;28;20234;-67
2022/07/27 11:51:55;;;;;;;0.95;0.95;;;27.20;99.90;;;;;;5059257;28;20200;-66
2022/07/27 11:54:25;;;;;;;0.80;0.80;;;27.10;99.90;;;;;;5062244;28;20231;-66
2022/07/27 11:56:53;;;;;;;0.85;0.85;;;27.10;99.90;;;;;;5060550;28;20246;-66
2022/07/27 11:59:21;;;;;;;0.77;0.77;;;27.10;99.90;;;;;;5061749;28;20214;-66
2022/07/27 12:01:52;;;;;;;1.58;0.90;;;27.00;99.90;;;;;;5059444;28;20195;-66
2022/07/27 12:04:21;;;;;;;0.80;0.80;;;27.00;99.90;;;;;;5061944;28;20214;-66
2022/07/27 12:06:56;;;;;;;0.80;0.80;;;26.90;99.90;;;;;;5055638;28;20231;-68
2022/07/27 12:09:23;;;;;;;0.80;0.80;;;26.70;99.90;;;;;;5059100;28;20235;-65
2022/07/27 12:12:01;;;;;;;0.70;0.70;;;26.50;99.90;;;;;;5064031;28;20245;-65
2022/07/27 12:14:34;;;;;;;1.35;1.00;;;26.60;99.90;;;;;;5055883;28;20649;-66
2022/07/27 12:17:20;;;;;;;0.70;0.70;;;26.70;99.90;;;;;;5056254;28;20236;-67
2022/07/27 12:19:52;;;;;;;1.05;0.90;;;27.00;99.90;;;;;;5056366;28;20584;-65
2022/07/27 12:22:28;;;;;;;0.80;0.80;;;27.20;99.90;;;;;;5064349;28;20349;-66
2022/07/27 12:24:56;;;;;;;0.68;0.68;;;27.20;99.90;;;;;;5060990;28;20302;-67
2022/07/27 12:27:25;;;;;;;0.60;0.60;;;27.20;99.90;;;;;;5066542;28;20222;-66
2022/07/27 12:30:11;;;;;;;0.50;0.50;;;27.30;99.90;;;;;;5056786;28;20196;-66
2022/07/27 12:32:42;;;;;;;0.80;0.80;;;27.60;99.90;;;;;;5046893;28;20207;-66
2022/07/27 12:35:21;;;;;;;1.00;0.95;;;27.50;99.90;;;;;;5053848;28;20678;-66
2022/07/27 12:37:55;;;;;;;0.80;0.80;;;27.80;99.90;;;;;;5070517;28;20230;-65
2022/07/27 12:40:22;;;;;;;0.80;0.80;;;27.90;99.90;;;;;;5051773;28;20196;-66
2022/07/27 12:42:56;;;;;;;1.25;0.90;;;28.10;99.90;;;;;;5055923;28;20283;-67
2022/07/27 12:45:23;;;;;;;0.70;0.70;;;28.10;99.90;;;;;;5054278;28;20214;-66
2022/07/27 12:47:51;;;;;;;0.93;0.93;;;28.30;99.90;;;;;;5054843;28;20224;-67
2022/07/27 12:50:27;;;;;;;0.90;0.90;;;28.20;99.90;;;;;;5041884;28;20199;-67
2022/07/27 12:52:54;;;;;;;0.90;0.90;;;28.30;99.90;;;;;;5069372;28;20728;-67
2022/07/27 12:55:22;;;;;;;0.80;0.80;;;28.20;99.90;;;;;;5061768;28;20219;-66